Time;durP1;ratioP1;P1;durP2;ratioP2;P2;SDS_P1;SDS_P2;PMS_P1;PMS_P2;Temp;Humidity;BMP_temperature;BMP_pressure;BME280_temperature;BME280_humidity;BME280_pressure;Samples;Min_cycle;Max_cycle;Signal;HPM_P1;HPM_P2
2021/06/05 00:01:54;;;;;;;2.50;1.93;;;18.30;99.90;;;;;;4975696;28;20634;-66
2021/06/05 00:04:22;;;;;;;3.43;2.87;;;18.40;99.90;;;;;;4975773;28;20619;-66
2021/06/05 00:06:50;;;;;;;2.83;2.50;;;18.30;99.90;;;;;;4975682;28;20609;-66
2021/06/05 00:09:18;;;;;;;3.13;2.50;;;18.40;99.90;;;;;;4974423;28;20609;-66
2021/06/05 00:11:44;;;;;;;2.83;2.63;;;18.40;99.90;;;;;;4975790;28;20610;-67
2021/06/05 00:14:12;;;;;;;2.93;2.40;;;18.40;99.90;;;;;;4975613;28;20613;-66
2021/06/05 00:16:43;;;;;;;2.90;2.70;;;18.40;99.90;;;;;;4975360;28;20607;-66
2021/06/05 00:19:14;;;;;;;3.20;2.30;;;18.30;99.90;;;;;;4975501;28;20629;-66
2021/06/05 00:21:42;;;;;;;3.60;2.77;;;18.40;99.90;;;;;;4975534;28;20561;-66
2021/06/05 00:24:09;;;;;;;4.50;2.70;;;18.40;99.90;;;;;;4975265;28;20603;-66
2021/06/05 00:26:35;;;;;;;3.10;2.77;;;18.40;99.90;;;;;;4975455;28;20598;-66
2021/06/05 00:29:03;;;;;;;6.73;3.60;;;18.40;99.90;;;;;;4975228;28;20591;-66
2021/06/05 00:31:29;;;;;;;5.63;3.30;;;18.20;99.90;;;;;;4975119;28;20595;-66
2021/06/05 00:33:56;;;;;;;4.30;3.90;;;18.20;99.90;;;;;;4974692;28;20605;-66
2021/06/05 00:36:24;;;;;;;4.50;4.27;;;18.10;99.90;;;;;;4975075;28;20590;-66
2021/06/05 00:38:52;;;;;;;5.23;4.80;;;18.10;99.90;;;;;;4975229;28;20659;-66
2021/06/05 00:41:19;;;;;;;6.90;5.30;;;18.10;99.90;;;;;;4974990;28;21217;-66
2021/06/05 00:43:49;;;;;;;4.07;3.63;;;18.10;99.90;;;;;;4975051;28;20650;-66
2021/06/05 00:46:18;;;;;;;5.77;3.60;;;18.20;99.90;;;;;;4975204;28;20941;-66
2021/06/05 00:48:46;;;;;;;3.60;3.30;;;18.30;99.90;;;;;;4974891;28;21223;-66
2021/06/05 00:51:13;;;;;;;3.33;3.07;;;18.30;99.90;;;;;;4975369;28;20626;-65
2021/06/05 00:53:40;;;;;;;2.50;2.40;;;18.40;99.90;;;;;;4975017;28;20601;-65
2021/06/05 00:56:10;;;;;;;3.03;2.50;;;18.30;99.90;;;;;;4974922;28;20618;-65
2021/06/05 00:58:36;;;;;;;2.20;2.10;;;18.40;99.90;;;;;;4974847;28;20754;-65
2021/06/05 01:01:14;;;;;;;5.83;2.53;;;18.40;99.90;;;;;;4975666;28;21009;-67
2021/06/05 01:03:40;;;;;;;4.00;2.33;;;18.40;99.90;;;;;;4974757;28;20559;-66
2021/06/05 01:06:27;;;;;;;4.70;2.77;;;18.40;99.90;;;;;;4975164;28;20625;-66
2021/06/05 01:09:02;;;;;;;4.60;2.60;;;18.40;99.90;;;;;;4974758;28;20986;-66
2021/06/05 01:11:57;;;;;;;2.53;2.03;;;18.30;99.90;;;;;;4974672;28;20626;-66
2021/06/05 01:14:44;;;;;;;2.80;2.10;;;18.30;99.90;;;;;;4974905;28;20571;-66
2021/06/05 01:17:22;;;;;;;4.20;2.57;;;18.30;99.90;;;;;;4974677;28;20902;-66
2021/06/05 01:19:54;;;;;;;2.60;2.40;;;18.20;99.90;;;;;;4974638;28;20567;-65
2021/06/05 01:22:53;;;;;;;4.17;2.40;;;18.20;99.90;;;;;;4974666;28;20625;-65
2021/06/05 01:25:55;;;;;;;2.30;1.93;;;18.10;99.90;;;;;;4957807;28;20636;-66
2021/06/05 01:29:01;;;;;;;5.60;2.93;;;18.10;99.90;;;;;;4974714;28;20555;-66
2021/06/05 01:31:32;;;;;;;3.63;2.53;;;18.00;99.90;;;;;;4961331;28;20641;-66
2021/06/05 01:34:00;;;;;;;3.83;2.10;;;18.00;99.90;;;;;;4974526;28;20574;-66
2021/06/05 01:36:27;;;;;;;2.23;2.00;;;18.00;99.90;;;;;;4974240;28;20581;-65
2021/06/05 01:39:01;;;;;;;4.93;3.40;;;18.00;99.90;;;;;;4974069;28;20662;-65
2021/06/05 01:41:31;;;;;;;6.33;2.80;;;18.00;99.90;;;;;;4974503;28;21252;-65
2021/06/05 01:43:59;;;;;;;2.60;2.40;;;17.90;99.90;;;;;;4975425;28;20647;-65
2021/06/05 01:46:30;;;;;;;3.33;3.00;;;17.90;99.90;;;;;;4977992;28;20997;-65
2021/06/05 01:48:57;;;;;;;4.20;2.53;;;17.90;99.90;;;;;;4978074;28;20662;-65
2021/06/05 01:51:24;;;;;;;4.27;2.53;;;17.90;99.90;;;;;;4978013;28;20605;-66
2021/06/05 01:53:56;;;;;;;3.80;2.70;;;17.90;99.90;;;;;;4977959;28;20618;-66
2021/06/05 01:56:27;;;;;;;5.07;2.60;;;17.90;99.90;;;;;;4978072;28;21117;-66
2021/06/05 01:58:56;;;;;;;4.20;3.00;;;17.80;99.90;;;;;;4977867;28;20634;-66
2021/06/05 02:01:23;;;;;;;5.70;2.73;;;17.80;99.90;;;;;;4977932;28;20605;-65
2021/06/05 02:03:50;;;;;;;4.63;3.47;;;17.80;99.90;;;;;;4976605;28;20598;-65
2021/06/05 02:06:19;;;;;;;3.17;2.87;;;17.80;99.90;;;;;;4977572;28;20619;-65
2021/06/05 02:08:45;;;;;;;4.67;3.20;;;17.80;99.90;;;;;;4977954;28;20630;-65
2021/06/05 02:11:15;;;;;;;4.13;2.77;;;17.80;99.90;;;;;;4978058;28;20952;-65
2021/06/05 02:13:54;;;;;;;6.10;3.20;;;17.80;99.90;;;;;;4977850;28;21168;-65
2021/06/05 02:16:29;;;;;;;4.33;2.73;;;17.80;99.90;;;;;;4977405;28;20619;-66
2021/06/05 02:19:01;;;;;;;6.33;3.20;;;17.70;99.90;;;;;;4977829;28;20650;-66
2021/06/05 02:21:30;;;;;;;3.30;3.03;;;17.80;99.90;;;;;;4977820;28;20583;-66
2021/06/05 02:24:05;;;;;;;5.47;3.47;;;17.70;99.90;;;;;;4975717;28;20969;-66
2021/06/05 02:26:35;;;;;;;3.27;2.87;;;17.70;99.90;;;;;;4977538;28;20955;-66
2021/06/05 02:29:04;;;;;;;3.33;3.10;;;17.60;99.90;;;;;;4977754;28;20976;-66
2021/06/05 02:31:30;;;;;;;4.37;3.10;;;17.60;99.90;;;;;;4977376;28;20603;-66
2021/06/05 02:33:59;;;;;;;4.57;3.20;;;17.60;99.90;;;;;;4977176;28;21247;-66
2021/06/05 02:36:25;;;;;;;3.73;2.70;;;17.60;99.90;;;;;;4977178;28;20602;-66
2021/06/05 02:38:53;;;;;;;4.03;3.10;;;17.60;99.90;;;;;;4977165;28;20664;-66
2021/06/05 02:41:22;;;;;;;6.17;3.10;;;17.60;99.90;;;;;;4977405;28;20653;-66
2021/06/05 02:43:53;;;;;;;3.40;3.10;;;17.50;99.90;;;;;;4977074;28;20652;-66
2021/06/05 02:46:24;;;;;;;3.17;2.87;;;17.50;99.90;;;;;;4977119;28;20570;-66
2021/06/05 02:48:57;;;;;;;6.70;3.30;;;17.50;99.90;;;;;;4976951;28;20618;-66
2021/06/05 02:51:32;;;;;;;3.53;3.23;;;17.40;99.90;;;;;;4976854;28;20646;-65
2021/06/05 02:53:58;;;;;;;5.07;3.20;;;17.30;99.90;;;;;;4976949;28;20953;-65
2021/06/05 02:56:25;;;;;;;3.37;3.00;;;17.40;99.90;;;;;;4976027;28;21142;-65
2021/06/05 02:58:52;;;;;;;3.73;2.63;;;17.40;99.90;;;;;;4976979;28;20640;-65
2021/06/05 03:01:20;;;;;;;3.00;2.80;;;17.50;99.90;;;;;;4976498;28;20661;-65
2021/06/05 03:03:47;;;;;;;2.60;2.30;;;17.60;99.90;;;;;;4976884;28;20626;-65
2021/06/05 03:06:14;;;;;;;3.20;2.93;;;17.60;99.90;;;;;;4977186;28;21148;-65
2021/06/05 03:08:42;;;;;;;3.57;2.30;;;17.60;99.90;;;;;;4991393;28;20633;-65
2021/06/05 03:11:12;;;;;;;3.63;2.60;;;17.70;99.90;;;;;;4976700;28;20670;-66
2021/06/05 03:13:39;;;;;;;3.03;2.37;;;17.70;99.90;;;;;;4976277;28;20631;-66
2021/06/05 03:16:06;;;;;;;3.83;2.73;;;17.60;99.90;;;;;;4976855;28;20652;-65
2021/06/05 03:18:34;;;;;;;4.13;2.23;;;17.60;99.90;;;;;;4976523;28;20641;-65
2021/06/05 03:21:00;;;;;;;2.57;2.37;;;17.60;99.90;;;;;;4976489;28;20599;-65
2021/06/05 03:23:30;;;;;;;2.67;2.47;;;17.50;99.90;;;;;;4975645;28;20610;-65
2021/06/05 03:25:57;;;;;;;4.97;2.60;;;17.50;99.90;;;;;;4976526;28;20613;-66
2021/06/05 03:28:26;;;;;;;3.10;2.80;;;17.50;99.90;;;;;;4976403;28;20627;-66
2021/06/05 03:30:53;;;;;;;3.13;2.93;;;17.50;99.90;;;;;;4976184;28;20598;-66
2021/06/05 03:33:21;;;;;;;5.43;3.47;;;17.50;99.90;;;;;;4976206;28;20714;-66
2021/06/05 03:35:48;;;;;;;3.30;2.57;;;17.50;99.90;;;;;;4976174;28;20629;-66
2021/06/05 03:38:15;;;;;;;3.60;2.93;;;17.50;99.90;;;;;;4976097;28;20642;-66
2021/06/05 03:40:42;;;;;;;6.67;2.40;;;17.50;99.90;;;;;;4976139;28;20657;-65
2021/06/05 03:43:09;;;;;;;7.90;3.27;;;17.50;99.90;;;;;;4976137;28;20634;-65
2021/06/05 03:45:36;;;;;;;3.07;2.73;;;17.50;99.90;;;;;;4975942;28;20645;-65
2021/06/05 03:48:04;;;;;;;5.30;3.60;;;17.40;99.90;;;;;;4975823;28;20719;-65
2021/06/05 03:50:34;;;;;;;5.00;3.30;;;17.40;99.90;;;;;;4976034;28;20591;-65
2021/06/05 03:53:00;;;;;;;9.50;3.27;;;17.50;99.90;;;;;;4976335;28;20622;-65
2021/06/05 03:55:27;;;;;;;3.37;3.07;;;17.40;99.90;;;;;;4974657;28;20607;-65
2021/06/05 03:57:58;;;;;;;3.40;3.10;;;17.40;99.90;;;;;;4976039;28;20638;-65
2021/06/05 04:00:31;;;;;;;7.07;4.33;;;17.40;99.90;;;;;;4975701;28;20626;-65
2021/06/05 04:02:58;;;;;;;3.80;3.20;;;17.30;99.90;;;;;;4975825;28;20623;-65
2021/06/05 04:05:25;;;;;;;3.50;3.13;;;17.30;99.90;;;;;;4975752;28;21010;-65
2021/06/05 04:07:52;;;;;;;5.93;4.17;;;17.30;99.90;;;;;;4975525;28;20626;-65
2021/06/05 04:10:22;;;;;;;3.23;2.93;;;17.30;99.90;;;;;;4975322;28;20594;-65
2021/06/05 04:12:50;;;;;;;4.20;3.77;;;17.30;99.90;;;;;;4975370;28;20623;-65
2021/06/05 04:15:17;;;;;;;3.50;3.20;;;17.30;99.90;;;;;;4975289;28;20622;-65
2021/06/05 04:17:44;;;;;;;3.27;3.07;;;17.30;99.90;;;;;;4975310;28;20594;-65
2021/06/05 04:20:15;;;;;;;4.40;3.47;;;17.40;99.90;;;;;;4975214;28;20594;-65
2021/06/05 04:22:42;;;;;;;3.70;3.40;;;17.40;99.90;;;;;;4975487;28;20570;-65
2021/06/05 04:25:10;;;;;;;3.13;2.93;;;17.40;99.90;;;;;;4975285;28;20630;-65
2021/06/05 04:27:36;;;;;;;3.80;3.50;;;17.40;99.90;;;;;;4975521;28;20614;-65
2021/06/05 04:30:06;;;;;;;4.70;3.87;;;17.40;99.90;;;;;;4975236;28;20609;-65
2021/06/05 04:32:32;;;;;;;6.13;4.93;;;17.50;99.90;;;;;;4975179;28;20630;-65
2021/06/05 04:34:59;;;;;;;4.43;4.03;;;17.60;99.90;;;;;;4975145;28;20603;-65
2021/06/05 04:37:25;;;;;;;7.43;4.50;;;17.60;99.90;;;;;;4974913;28;20607;-65
2021/06/05 04:39:51;;;;;;;4.70;4.20;;;17.70;99.90;;;;;;4974804;28;20638;-65
2021/06/05 04:42:17;;;;;;;5.07;4.67;;;17.70;99.90;;;;;;4974870;28;20607;-65
2021/06/05 04:44:44;;;;;;;6.00;4.70;;;17.60;99.90;;;;;;4974762;28;20643;-66
2021/06/05 04:47:10;;;;;;;5.53;5.03;;;17.70;99.90;;;;;;4974816;28;20615;-66
2021/06/05 04:49:37;;;;;;;6.13;5.10;;;17.80;99.90;;;;;;4973742;28;20618;-66
2021/06/05 04:52:03;;;;;;;8.13;4.30;;;17.90;99.90;;;;;;4975006;28;20606;-66
2021/06/05 04:54:30;;;;;;;6.00;5.00;;;17.90;99.90;;;;;;4974784;28;20605;-66
2021/06/05 04:56:56;;;;;;;6.90;4.80;;;17.90;99.90;;;;;;4974672;28;20622;-66
2021/06/05 04:59:22;;;;;;;6.37;4.67;;;18.00;99.90;;;;;;4974663;28;20638;-66
2021/06/05 05:01:49;;;;;;;5.90;5.40;;;18.00;99.90;;;;;;4973460;28;20603;-66
2021/06/05 05:04:16;;;;;;;5.20;4.67;;;18.20;99.90;;;;;;4974591;28;21171;-66
2021/06/05 05:06:43;;;;;;;5.20;4.77;;;18.20;99.90;;;;;;4974755;28;20987;-66
2021/06/05 05:09:12;;;;;;;5.90;5.30;;;18.20;99.90;;;;;;4974609;28;20628;-66
2021/06/05 05:11:38;;;;;;;7.57;5.43;;;18.50;99.90;;;;;;4974559;28;20999;-66
2021/06/05 05:14:05;;;;;;;6.00;5.40;;;18.60;99.90;;;;;;4974434;28;20595;-66
2021/06/05 05:16:32;;;;;;;10.33;5.00;;;18.60;99.90;;;;;;4974351;28;20602;-66
2021/06/05 05:18:59;;;;;;;5.23;4.70;;;18.50;99.90;;;;;;4973892;28;20644;-66
2021/06/05 05:21:27;;;;;;;8.20;5.37;;;18.50;99.90;;;;;;4974646;28;21200;-66
2021/06/05 05:23:53;;;;;;;7.50;5.33;;;18.50;99.90;;;;;;4974414;28;20601;-66
2021/06/05 05:26:21;;;;;;;8.37;5.60;;;18.60;99.90;;;;;;4974687;28;21167;-66
2021/06/05 05:28:49;;;;;;;7.90;5.07;;;18.50;99.90;;;;;;4974414;28;20638;-66
2021/06/05 05:31:19;;;;;;;11.00;6.37;;;18.60;99.90;;;;;;4974407;28;20692;-66
2021/06/05 05:33:45;;;;;;;5.87;5.47;;;18.50;99.90;;;;;;4974338;28;20611;-66
2021/06/05 05:36:17;;;;;;;5.67;4.90;;;18.40;99.90;;;;;;4974400;28;20637;-66
2021/06/05 05:38:44;;;;;;;8.93;5.37;;;18.40;99.90;;;;;;4988815;28;20757;-66
2021/06/05 05:41:14;;;;;;;5.87;5.30;;;18.40;99.90;;;;;;4973156;28;21205;-66
2021/06/05 05:43:40;;;;;;;6.10;5.37;;;18.30;99.90;;;;;;4974174;28;20662;-66
2021/06/05 05:46:07;;;;;;;11.10;5.13;;;18.30;99.90;;;;;;4974557;28;20587;-66
2021/06/05 05:48:35;;;;;;;8.23;6.60;;;18.30;99.90;;;;;;4974198;28;20607;-66
2021/06/05 05:51:02;;;;;;;9.27;6.57;;;18.20;99.90;;;;;;4974149;28;20957;-66
2021/06/05 05:53:28;;;;;;;7.40;5.80;;;18.20;99.90;;;;;;4974411;28;20627;-67
2021/06/05 05:55:54;;;;;;;7.03;6.33;;;18.20;99.90;;;;;;4988665;28;20618;-66
2021/06/05 05:58:23;;;;;;;7.50;6.63;;;18.20;99.90;;;;;;4973947;28;20992;-65
2021/06/05 06:00:51;;;;;;;6.97;6.40;;;18.20;99.90;;;;;;4974206;28;20634;-66
2021/06/05 06:03:19;;;;;;;11.93;6.30;;;18.30;99.90;;;;;;4972877;28;20702;-67
2021/06/05 06:05:46;;;;;;;9.30;5.83;;;18.50;99.90;;;;;;4973939;28;20630;-67
2021/06/05 06:08:16;;;;;;;6.23;5.67;;;18.40;99.90;;;;;;4974112;28;20595;-67
2021/06/05 06:10:43;;;;;;;6.53;5.93;;;18.50;99.90;;;;;;4973714;28;20633;-67
2021/06/05 06:13:10;;;;;;;6.70;5.37;;;18.50;99.90;;;;;;4973744;28;20645;-66
2021/06/05 06:15:37;;;;;;;8.17;6.10;;;18.60;99.90;;;;;;4974138;28;20607;-66
2021/06/05 06:18:05;;;;;;;7.00;5.53;;;18.50;99.90;;;;;;4973834;28;20599;-66
2021/06/05 06:20:43;;;;;;;8.10;5.80;;;18.60;99.90;;;;;;4972746;28;20619;-66
2021/06/05 06:23:18;;;;;;;5.53;5.13;;;18.60;99.90;;;;;;4973950;28;20638;-66
2021/06/05 06:25:49;;;;;;;5.93;5.43;;;18.70;99.90;;;;;;4973849;28;20543;-66
2021/06/05 06:28:18;;;;;;;5.00;4.50;;;18.70;99.90;;;;;;4973415;28;20641;-66
2021/06/05 06:30:45;;;;;;;6.47;5.00;;;18.90;99.90;;;;;;4974818;28;20591;-66
2021/06/05 06:33:13;;;;;;;9.20;5.40;;;18.80;99.90;;;;;;4977306;28;20614;-66
2021/06/05 06:35:40;;;;;;;7.20;4.60;;;18.80;99.90;;;;;;4977011;28;20601;-66
2021/06/05 06:38:11;;;;;;;10.43;5.07;;;18.90;99.90;;;;;;4977056;28;20610;-66
2021/06/05 06:40:39;;;;;;;8.73;4.70;;;18.90;99.90;;;;;;4977231;28;20642;-66
2021/06/05 06:43:08;;;;;;;6.13;5.20;;;19.00;99.90;;;;;;4977025;28;20594;-66
2021/06/05 06:45:34;;;;;;;4.43;3.83;;;19.00;99.90;;;;;;4976823;28;20649;-66
2021/06/05 06:48:01;;;;;;;8.50;4.80;;;19.10;99.90;;;;;;4976954;28;20606;-66
2021/06/05 06:50:29;;;;;;;4.40;4.03;;;19.10;99.90;;;;;;4976996;28;20610;-66
2021/06/05 06:52:57;;;;;;;9.73;4.30;;;19.10;99.90;;;;;;4976683;28;21299;-66
2021/06/05 06:55:25;;;;;;;9.50;4.73;;;19.00;99.90;;;;;;4976741;28;20634;-65
2021/06/05 06:57:52;;;;;;;9.17;4.43;;;19.00;99.90;;;;;;4976746;28;20594;-65
2021/06/05 07:00:41;;;;;;;4.27;3.90;;;19.00;99.90;;;;;;4975390;28;20638;-65
2021/06/05 07:03:07;;;;;;;4.03;3.63;;;19.10;99.90;;;;;;4974561;28;20618;-65
2021/06/05 07:05:33;;;;;;;10.70;4.90;;;19.10;99.90;;;;;;4976523;28;21174;-65
2021/06/05 07:08:25;;;;;;;5.00;4.57;;;19.20;99.90;;;;;;4976820;28;20653;-65
2021/06/05 07:11:04;;;;;;;6.97;3.80;;;19.30;99.90;;;;;;4976391;28;20575;-68
2021/06/05 07:13:30;;;;;;;4.70;4.17;;;19.40;99.90;;;;;;4976543;28;20563;-67
2021/06/05 07:15:57;;;;;;;4.20;3.80;;;19.50;99.90;;;;;;4976402;28;20686;-67
2021/06/05 07:18:26;;;;;;;4.23;3.83;;;19.50;99.90;;;;;;4991356;28;20638;-65
2021/06/05 07:20:53;;;;;;;3.80;3.50;;;19.60;99.90;;;;;;4976367;28;20591;-66
2021/06/05 07:23:22;;;;;;;3.80;3.50;;;19.80;99.90;;;;;;4974759;28;20621;-66
2021/06/05 07:25:49;;;;;;;3.90;3.60;;;19.90;99.90;;;;;;4976298;28;20595;-66
2021/06/05 07:28:26;;;;;;;3.40;3.00;;;20.00;99.90;;;;;;4976182;28;20595;-66
2021/06/05 07:30:54;;;;;;;3.83;3.53;;;20.10;99.90;;;;;;4978055;28;20625;-66
2021/06/05 07:33:21;;;;;;;6.13;3.70;;;20.20;99.90;;;;;;4979282;28;20605;-66
2021/06/05 07:35:49;;;;;;;3.70;3.40;;;20.30;99.90;;;;;;4975985;28;20606;-66
2021/06/05 07:38:16;;;;;;;6.67;3.60;;;20.70;99.90;;;;;;4975951;28;20591;-66
2021/06/05 07:40:45;;;;;;;6.50;3.37;;;21.00;99.90;;;;;;4975784;28;21161;-66
2021/06/05 07:43:13;;;;;;;5.77;3.53;;;21.30;99.90;;;;;;4975687;28;20595;-67
2021/06/05 07:45:39;;;;;;;3.83;3.53;;;21.10;99.90;;;;;;4975895;28;20646;-66
2021/06/05 07:48:07;;;;;;;4.27;2.67;;;20.90;99.90;;;;;;4975953;28;20701;-66
2021/06/05 07:50:33;;;;;;;4.50;3.00;;;20.60;99.90;;;;;;4976034;28;20603;-66
2021/06/05 07:53:03;;;;;;;3.03;2.83;;;20.70;99.90;;;;;;4974473;28;20634;-67
2021/06/05 07:55:30;;;;;;;2.50;2.40;;;20.70;99.90;;;;;;4975807;28;20964;-66
2021/06/05 07:57:56;;;;;;;3.27;3.07;;;20.80;99.90;;;;;;4975688;28;20607;-66
2021/06/05 08:00:25;;;;;;;3.33;3.03;;;20.70;99.90;;;;;;4975502;28;20684;-66
2021/06/05 08:02:52;;;;;;;2.97;2.77;;;20.70;99.90;;;;;;4975683;28;20598;-67
2021/06/05 08:05:20;;;;;;;2.93;2.70;;;20.60;99.90;;;;;;4975857;28;20629;-67
2021/06/05 08:07:49;;;;;;;4.47;2.90;;;20.80;99.90;;;;;;4974497;28;20670;-67
2021/06/05 08:10:17;;;;;;;3.60;3.30;;;20.90;99.90;;;;;;4975455;28;20694;-67
2021/06/05 08:12:43;;;;;;;3.07;2.87;;;20.60;99.90;;;;;;4975668;28;21098;-67
2021/06/05 08:15:14;;;;;;;3.30;3.10;;;20.70;99.90;;;;;;4975256;28;20613;-67
2021/06/05 08:17:40;;;;;;;3.20;3.00;;;20.80;99.90;;;;;;4975549;28;20566;-67
2021/06/05 08:20:11;;;;;;;4.07;2.97;;;20.60;99.90;;;;;;4975408;28;20662;-67
2021/06/05 08:22:38;;;;;;;2.60;2.50;;;20.60;99.90;;;;;;4975268;28;20650;-68
2021/06/05 08:25:06;;;;;;;2.63;2.43;;;20.70;99.90;;;;;;4975247;28;21047;-67
2021/06/05 08:27:34;;;;;;;4.87;3.67;;;20.60;99.90;;;;;;4975517;28;20627;-67
2021/06/05 08:30:00;;;;;;;3.00;2.80;;;20.60;99.90;;;;;;4975353;28;20713;-67
2021/06/05 08:32:27;;;;;;;4.73;3.80;;;20.70;99.90;;;;;;4975126;28;20689;-67
2021/06/05 08:34:54;;;;;;;4.87;3.33;;;20.70;99.90;;;;;;4973938;28;20630;-67
2021/06/05 08:37:20;;;;;;;3.90;3.60;;;20.60;99.90;;;;;;4975309;28;20622;-67
2021/06/05 08:39:46;;;;;;;3.87;3.60;;;20.80;99.90;;;;;;4975231;28;20654;-68
2021/06/05 08:42:22;;;;;;;4.90;3.37;;;21.10;99.90;;;;;;4975088;28;20675;-67
2021/06/05 08:44:51;;;;;;;6.07;3.40;;;21.10;99.90;;;;;;4989644;28;20658;-67
2021/06/05 08:47:26;;;;;;;4.40;4.10;;;20.90;99.90;;;;;;4975096;28;20646;-67
2021/06/05 08:49:53;;;;;;;6.30;3.70;;;20.90;99.90;;;;;;4974846;28;20567;-66
2021/06/05 08:52:31;;;;;;;5.07;4.47;;;21.50;99.90;;;;;;4974932;28;20603;-66
2021/06/05 08:55:04;;;;;;;6.30;4.70;;;21.40;99.90;;;;;;4974389;28;20576;-67
2021/06/05 08:57:38;;;;;;;5.00;4.07;;;21.30;99.90;;;;;;4975060;28;20662;-67
2021/06/05 09:00:20;;;;;;;5.20;4.70;;;21.60;99.90;;;;;;4973541;28;21067;-67
2021/06/05 09:02:54;;;;;;;4.17;3.90;;;22.00;99.90;;;;;;4974803;28;20566;-67
2021/06/05 09:05:26;;;;;;;4.93;4.37;;;21.70;99.90;;;;;;4974790;28;20926;-67
2021/06/05 09:07:52;;;;;;;4.93;4.53;;;21.40;99.90;;;;;;4975020;28;20583;-66
2021/06/05 09:10:22;;;;;;;4.70;4.30;;;21.30;99.90;;;;;;4974489;28;20632;-65
2021/06/05 09:12:49;;;;;;;5.70;4.63;;;21.40;99.90;;;;;;4974504;28;20985;-66
2021/06/05 09:15:36;;;;;;;5.37;4.80;;;21.40;99.90;;;;;;4974591;28;20602;-66
2021/06/05 09:18:07;;;;;;;4.13;3.83;;;21.30;99.90;;;;;;4974774;28;21161;-66
2021/06/05 09:20:46;;;;;;;4.10;3.63;;;21.30;99.90;;;;;;4974679;28;20639;-67
2021/06/05 09:23:30;;;;;;;4.10;3.77;;;21.70;99.90;;;;;;4989298;28;21013;-67
2021/06/05 09:26:16;;;;;;;5.80;5.37;;;22.40;99.90;;;;;;4975060;28;20563;-68
2021/06/05 09:28:43;;;;;;;3.77;3.47;;;22.00;99.90;;;;;;4974270;28;20643;-66
2021/06/05 09:31:22;;;;;;;3.80;3.47;;;22.30;99.90;;;;;;4974657;28;20603;-67
2021/06/05 09:33:49;;;;;;;6.10;3.00;;;22.40;99.90;;;;;;4974501;28;20662;-67
2021/06/05 09:36:32;;;;;;;3.20;2.90;;;22.50;99.90;;;;;;4973385;28;20659;-66
2021/06/05 09:39:12;;;;;;;3.90;3.70;;;22.50;99.90;;;;;;4973941;28;20654;-66
2021/06/05 09:41:49;;;;;;;3.37;3.00;;;22.50;99.90;;;;;;4974440;28;20650;-66
2021/06/05 09:44:28;;;;;;;3.20;2.50;;;22.60;99.90;;;;;;4974234;28;20650;-66
2021/06/05 09:47:26;;;;;;;3.07;2.73;;;22.80;99.90;;;;;;4974321;28;20581;-66
2021/06/05 09:49:59;;;;;;;3.20;3.00;;;23.20;90.40;;;;;;4974561;28;20743;-66
2021/06/05 09:52:31;;;;;;;2.80;2.20;;;23.30;99.90;;;;;;4974425;28;20633;-66
2021/06/05 09:55:19;;;;;;;2.10;2.00;;;24.00;1.00;;;;;;4974161;28;20985;-65
2021/06/05 09:57:47;;;;;;;3.23;2.93;;;24.70;1.00;;;;;;4960487;28;20627;-65
2021/06/05 10:00:27;;;;;;;2.03;1.93;;;25.10;1.00;;;;;;4988564;28;20693;-65
2021/06/05 10:03:19;;;;;;;2.10;2.00;;;24.20;1.00;;;;;;4974200;28;20629;-65
2021/06/05 10:05:50;;;;;;;3.00;2.30;;;24.10;1.00;;;;;;4977032;28;20966;-66
2021/06/05 10:08:28;;;;;;;2.33;2.13;;;23.60;1.00;;;;;;4978179;28;20619;-66
2021/06/05 10:11:18;;;;;;;2.87;2.63;;;23.20;6.20;;;;;;4977769;28;20596;-67
2021/06/05 10:13:54;;;;;;;2.97;2.30;;;23.50;1.00;;;;;;4977679;28;20664;-66
2021/06/05 10:16:23;;;;;;;2.50;2.30;;;23.70;1.00;;;;;;4977460;28;21082;-66
2021/06/05 10:19:11;;;;;;;1.93;1.83;;;23.80;1.00;;;;;;4977514;28;20632;-66
2021/06/05 10:21:44;;;;;;;2.50;2.30;;;24.30;1.00;;;;;;4977511;28;20623;-66
2021/06/05 10:24:39;;;;;;;3.17;2.87;;;24.20;1.00;;;;;;4977478;28;20870;-66
2021/06/05 10:27:17;;;;;;;2.63;2.43;;;24.90;1.00;;;;;;4977431;28;21139;-66
2021/06/05 10:29:50;;;;;;;2.23;2.13;;;24.80;1.00;;;;;;4977544;28;20547;-66
2021/06/05 10:32:31;;;;;;;2.70;2.50;;;24.10;1.00;;;;;;4977487;28;21017;-66
2021/06/05 10:35:04;;;;;;;2.60;2.10;;;23.20;1.00;;;;;;4977217;28;20571;-66
2021/06/05 10:37:34;;;;;;;3.33;2.70;;;22.90;1.00;;;;;;4977324;28;20629;-66
2021/06/05 10:40:06;;;;;;;2.70;2.60;;;22.60;22.40;;;;;;4977064;28;20599;-66
2021/06/05 10:42:51;;;;;;;2.60;2.40;;;23.00;11.30;;;;;;4977093;28;20631;-66
2021/06/05 10:45:25;;;;;;;3.07;2.10;;;23.00;1.00;;;;;;4976951;28;20708;-66
2021/06/05 10:48:18;;;;;;;7.00;3.17;;;22.80;11.40;;;;;;4976942;28;20569;-66
2021/06/05 10:50:48;;;;;;;3.03;2.70;;;22.60;19.40;;;;;;4976974;28;20563;-66
2021/06/05 10:53:33;;;;;;;3.10;2.80;;;22.70;32.90;;;;;;4977130;28;20630;-66
2021/06/05 10:56:11;;;;;;;2.90;2.80;;;22.50;27.20;;;;;;4977329;28;20618;-67
2021/06/05 10:58:49;;;;;;;3.13;2.80;;;22.60;22.20;;;;;;4977631;28;20633;-68
2021/06/05 11:01:37;;;;;;;3.40;3.10;;;22.80;26.30;;;;;;4983834;28;20637;-66
2021/06/05 11:04:28;;;;;;;3.23;2.93;;;23.00;15.50;;;;;;4996338;28;20597;-67
2021/06/05 11:07:20;;;;;;;3.83;3.53;;;23.20;1.00;;;;;;4995440;28;20617;-66
2021/06/05 11:09:52;;;;;;;3.40;3.10;;;22.90;1.40;;;;;;4996887;28;20576;-66
2021/06/05 11:12:19;;;;;;;3.17;2.60;;;23.20;1.50;;;;;;4997207;28;20590;-68
2021/06/05 11:14:49;;;;;;;5.47;3.00;;;23.30;1.00;;;;;;4996301;28;20626;-66
2021/06/05 11:17:36;;;;;;;2.70;2.50;;;23.70;1.00;;;;;;4995045;28;20606;-66
2021/06/05 11:20:04;;;;;;;4.57;3.77;;;23.50;1.00;;;;;;4995635;28;20697;-66
2021/06/05 11:22:51;;;;;;;2.83;2.43;;;23.80;1.00;;;;;;4995850;28;20622;-66
2021/06/05 11:25:17;;;;;;;2.93;2.73;;;23.70;1.00;;;;;;4995937;28;20605;-66
2021/06/05 11:27:45;;;;;;;3.40;2.90;;;23.70;1.00;;;;;;4995715;28;20605;-66
2021/06/05 11:30:21;;;;;;;3.30;2.50;;;23.70;1.00;;;;;;4995535;28;21164;-66
2021/06/05 11:33:07;;;;;;;3.20;2.93;;;23.60;1.00;;;;;;4995545;28;20990;-66
2021/06/05 11:35:36;;;;;;;2.90;2.63;;;23.30;1.00;;;;;;4995686;28;20632;-66
2021/06/05 11:38:06;;;;;;;5.10;3.10;;;23.10;1.00;;;;;;4995822;28;20594;-66
2021/06/05 11:40:51;;;;;;;3.90;2.23;;;22.00;99.90;;;;;;4995634;28;20680;-66
2021/06/05 11:43:29;;;;;;;20.13;2.00;;;21.40;99.90;;;;;;4995240;28;20621;-66
2021/06/05 11:46:04;;;;;;;2.70;1.67;;;21.20;99.90;;;;;;4995441;28;20622;-66
2021/06/05 11:48:54;;;;;;;2.27;1.30;;;20.50;99.90;;;;;;4995233;28;20624;-66
2021/06/05 11:51:21;;;;;;;2.43;1.50;;;20.10;99.90;;;;;;4995191;28;20990;-66
2021/06/05 11:53:53;;;;;;;3.30;1.30;;;20.10;99.90;;;;;;4995487;28;20590;-66
2021/06/05 11:56:30;;;;;;;1.70;1.60;;;20.00;99.90;;;;;;4995318;28;20593;-66
2021/06/05 11:59:10;;;;;;;3.30;1.37;;;19.80;99.90;;;;;;4995254;28;20621;-66
2021/06/05 12:01:37;;;;;;;3.97;1.67;;;19.50;99.90;;;;;;4995399;28;20692;-66
2021/06/05 12:04:13;;;;;;;1.67;1.57;;;19.30;99.90;;;;;;4994758;28;20688;-66
2021/06/05 12:06:45;;;;;;;2.07;1.97;;;19.40;99.90;;;;;;4994868;28;20652;-66
2021/06/05 12:09:17;;;;;;;3.50;2.03;;;19.20;99.90;;;;;;4995379;28;20695;-66
2021/06/05 12:12:01;;;;;;;2.20;2.00;;;19.20;99.90;;;;;;4995251;28;20594;-66
2021/06/05 12:14:48;;;;;;;1.93;1.77;;;19.00;99.90;;;;;;4995412;28;20697;-66
2021/06/05 12:17:32;;;;;;;1.80;1.70;;;19.10;99.90;;;;;;4994978;28;20632;-66
2021/06/05 12:20:20;;;;;;;2.93;1.97;;;19.20;99.90;;;;;;4994898;28;20605;-66
2021/06/05 12:22:50;;;;;;;1.47;1.37;;;19.20;99.90;;;;;;4995384;28;20573;-66
2021/06/05 12:25:44;;;;;;;1.57;1.30;;;19.40;99.90;;;;;;4995171;28;20567;-66
2021/06/05 12:28:22;;;;;;;1.30;1.20;;;19.50;99.90;;;;;;4992253;28;20648;-67
2021/06/05 12:30:49;;;;;;;1.97;1.30;;;19.40;99.90;;;;;;4994996;28;21042;-67
2021/06/05 12:33:29;;;;;;;1.07;1.03;;;19.80;99.90;;;;;;4994548;28;20632;-67
2021/06/05 12:35:56;;;;;;;0.90;0.83;;;19.70;99.90;;;;;;4995079;28;20621;-67
2021/06/05 12:38:36;;;;;;;1.17;1.07;;;19.70;99.90;;;;;;4995266;28;20634;-66
2021/06/05 12:41:07;;;;;;;1.47;1.30;;;19.90;99.90;;;;;;4994158;28;20673;-65
2021/06/05 12:43:36;;;;;;;0.90;0.90;;;20.10;99.90;;;;;;4994578;28;20570;-65
2021/06/05 12:46:06;;;;;;;1.40;1.30;;;20.30;99.90;;;;;;4995008;28;21101;-66
2021/06/05 12:48:34;;;;;;;1.47;0.93;;;20.60;99.90;;;;;;4995062;28;20562;-65
2021/06/05 12:51:04;;;;;;;1.47;1.37;;;20.60;99.90;;;;;;4993250;28;20661;-65
2021/06/05 12:53:31;;;;;;;1.30;1.30;;;20.40;99.90;;;;;;4994187;28;20650;-65
2021/06/05 12:56:01;;;;;;;3.43;1.20;;;20.30;99.90;;;;;;4993953;28;20613;-65
2021/06/05 12:58:34;;;;;;;1.93;1.20;;;20.20;99.90;;;;;;4994206;28;20693;-65
2021/06/05 13:01:01;;;;;;;1.20;1.10;;;20.10;99.90;;;;;;4994101;28;20661;-65
2021/06/05 13:03:44;;;;;;;1.30;1.20;;;20.10;99.90;;;;;;4994163;28;20687;-65
2021/06/05 13:06:16;;;;;;;1.20;1.10;;;19.90;99.90;;;;;;4993857;28;20565;-65
2021/06/05 13:08:45;;;;;;;1.77;1.67;;;19.70;99.90;;;;;;4994180;28;20597;-65
2021/06/05 13:11:32;;;;;;;1.90;1.80;;;19.50;99.90;;;;;;4994099;28;20621;-65